createdAt,value
2024-03-04T00:00:42.123Z,92.52
2024-03-04T00:02:59.101Z,92.20
2024-03-04T00:05:16.251Z,92.56
2024-03-04T00:07:33.273Z,92.15
2024-03-04T00:09:50.173Z,92.45
2024-03-04T00:12:07.082Z,92.45
2024-03-04T00:14:24.513Z,92.56
2024-03-04T00:16:41.583Z,92.62
2024-03-04T00:18:58.585Z,93.09
2024-03-04T00:21:15.523Z,93.10
2024-03-04T00:23:32.381Z,93.60
2024-03-04T00:25:49.288Z,93.74
2024-03-04T00:28:06.269Z,94.22
2024-03-04T00:30:23.244Z,93.95
2024-03-04T00:32:40.199Z,94.71
2024-03-04T00:34:57.180Z,94.13
2024-03-04T00:37:14.183Z,94.48
2024-03-04T00:39:31.093Z,94.70
2024-03-04T00:41:47.974Z,95.35
2024-03-04T00:44:04.940Z,94.78
2024-03-04T00:46:21.869Z,95.02
2024-03-04T00:48:38.781Z,95.31
2024-03-04T00:50:55.698Z,95.71
2024-03-04T00:53:12.607Z,95.48
2024-03-04T00:55:29.570Z,95.63
2024-03-04T00:57:46.468Z,95.79
2024-03-04T01:00:03.344Z,95.52
2024-03-04T01:02:20.301Z,95.36
2024-03-04T01:04:37.340Z,95.49
2024-03-04T01:06:54.454Z,95.34
2024-03-04T01:09:11.424Z,96.09
2024-03-04T01:11:28.302Z,95.64
2024-03-04T01:13:45.332Z,95.92
2024-03-04T01:16:02.329Z,95.52
2024-03-04T01:18:19.315Z,95.71
2024-03-04T01:20:36.212Z,95.75
2024-03-04T01:22:53.103Z,95.18
2024-03-04T01:25:10.017Z,95.49
2024-03-04T01:27:26.989Z,95.37
2024-03-04T01:29:43.881Z,95.64
2024-03-04T01:32:00.838Z,95.68
2024-03-04T01:34:17.894Z,95.50
2024-03-04T01:36:34.839Z,95.53
2024-03-04T01:38:51.706Z,95.40
2024-03-04T01:41:08.622Z,95.55
2024-03-04T01:43:25.529Z,95.46
2024-03-04T01:45:42.459Z,95.66
2024-03-04T01:47:59.429Z,95.74
2024-03-04T01:50:16.427Z,96.07
2024-03-04T01:52:33.492Z,96.75
2024-03-04T01:54:50.442Z,96.65
2024-03-04T01:57:07.330Z,97.38
2024-03-04T01:59:24.274Z,98.01
2024-03-04T02:01:41.199Z,97.34
2024-03-04T02:03:58.402Z,97.21
2024-03-04T02:06:15.298Z,97.38
2024-03-04T02:08:32.165Z,97.86
2024-03-04T02:10:49.170Z,98.19
2024-03-04T02:13:06.209Z,98.43
2024-03-04T02:15:23.200Z,97.93
2024-03-04T02:17:40.188Z,98.05
2024-03-04T02:19:57.097Z,98.67
2024-03-04T02:22:14.089Z,98.59
2024-03-04T02:24:31.184Z,98.14
2024-03-04T02:26:48.140Z,98.65
2024-03-04T02:29:05.361Z,98.63
2024-03-04T02:31:22.316Z,99.04
2024-03-04T02:33:39.197Z,98.92
2024-03-04T02:35:56.235Z,98.79
2024-03-04T02:38:13.120Z,99.34
2024-03-04T02:40:30.260Z,98.40
2024-03-04T02:42:47.249Z,98.70
2024-03-04T02:45:04.220Z,98.86
2024-03-04T02:47:21.191Z,99.68
2024-03-04T02:49:38.133Z,99.25
2024-03-04T02:51:55.072Z,99.65
2024-03-04T02:54:12.068Z,99.84
2024-03-04T02:56:29.003Z,98.66
2024-03-04T02:58:46.062Z,99.84
2024-03-04T03:01:03.270Z,99.34
2024-03-04T03:03:20.280Z,99.35
2024-03-04T03:05:37.187Z,98.47
2024-03-04T03:07:54.079Z,99.39
2024-03-04T03:10:11.165Z,99.18
2024-03-04T03:12:28.064Z,98.32
2024-03-04T03:14:44.963Z,99.52
2024-03-04T03:17:01.844Z,99.58
2024-03-04T03:19:18.836Z,99.65
2024-03-04T03:21:35.832Z,99.24
2024-03-04T03:23:52.796Z,99.24
2024-03-04T03:26:09.730Z,99.19
2024-03-04T03:28:26.683Z,98.21
2024-03-04T03:30:43.657Z,99.45
2024-03-04T03:33:00.668Z,98.23
2024-03-04T03:35:17.675Z,99.47
2024-03-04T03:37:34.752Z,99.04
2024-03-04T03:39:51.759Z,98.92
2024-03-04T03:42:08.648Z,98.61
2024-03-04T03:44:25.519Z,97.90
2024-03-04T03:46:42.666Z,98.24
2024-03-04T03:48:59.714Z,98.09
2024-03-04T03:51:16.653Z,97.76
2024-03-04T03:53:33.572Z,97.67
2024-03-04T03:55:50.473Z,97.04
2024-03-04T03:58:07.503Z,97.82
2024-03-04T04:00:24.470Z,97.20
2024-03-04T04:02:41.470Z,97.23
2024-03-04T04:04:58.394Z,96.58
2024-03-04T04:07:15.430Z,96.34
2024-03-04T04:09:32.365Z,96.88
2024-03-04T04:11:49.340Z,95.50
2024-03-04T04:14:06.301Z,97.16
2024-03-04T04:16:23.212Z,97.04
2024-03-04T04:18:40.177Z,95.82
2024-03-04T04:20:57.026Z,97.11
2024-03-04T04:23:15.296Z,97.35
2024-03-04T04:25:32.333Z,95.76
2024-03-04T04:27:49.344Z,97.18
2024-03-04T04:30:06.221Z,95.90
2024-03-04T04:32:23.203Z,96.20
2024-03-04T04:34:40.268Z,97.61
2024-03-04T04:36:57.220Z,97.81
2024-03-04T04:39:14.193Z,95.61
2024-03-04T04:41:35.996Z,96.48
2024-03-04T04:43:53.280Z,95.95
2024-03-04T04:46:10.194Z,95.49
2024-03-04T04:48:27.101Z,95.70
2024-03-04T04:50:43.958Z,95.96
2024-03-04T04:53:00.865Z,96.09
2024-03-04T04:55:19.033Z,95.82
2024-03-04T04:57:36.305Z,94.65
2024-03-04T04:59:53.342Z,95.52
2024-03-04T05:02:10.450Z,94.93
2024-03-04T05:04:43.449Z,94.25
2024-03-04T05:07:04.263Z,93.45
2024-03-04T05:09:21.138Z,93.91
2024-03-04T05:11:38.129Z,93.90
2024-03-04T05:13:55.124Z,93.71
2024-03-04T05:16:12.040Z,93.56
2024-03-04T05:18:28.928Z,94.16
2024-03-04T05:20:54.397Z,93.30
2024-03-04T05:23:13.774Z,93.98
2024-03-04T05:25:30.817Z,94.68
2024-03-04T05:27:47.857Z,93.66
2024-03-04T05:30:04.973Z,93.68
2024-03-04T05:32:21.937Z,93.72
2024-03-04T05:34:38.958Z,93.84
2024-03-04T05:36:56.002Z,94.88
2024-03-04T05:39:12.928Z,93.97
2024-03-04T05:41:29.819Z,94.48
2024-03-04T05:43:46.773Z,93.85
2024-03-04T05:46:03.716Z,93.21
2024-03-04T05:48:20.638Z,93.82
2024-03-04T05:50:37.539Z,94.12
2024-03-04T05:52:54.575Z,93.02
2024-03-04T05:55:11.500Z,93.44
2024-03-04T05:57:28.542Z,93.84
2024-03-04T05:59:45.468Z,93.19
2024-03-04T06:02:02.448Z,94.09
2024-03-04T06:04:19.509Z,93.47
2024-03-04T06:06:36.486Z,92.78
2024-03-04T06:08:53.443Z,92.74
2024-03-04T06:11:10.392Z,94.30
2024-03-04T06:13:27.395Z,94.00
2024-03-04T06:15:44.380Z,93.48
2024-03-04T06:18:01.308Z,92.68
2024-03-04T06:20:18.203Z,92.05
2024-03-04T06:22:35.197Z,92.62
2024-03-04T06:24:52.130Z,90.79
2024-03-04T06:27:09.165Z,91.70
2024-03-04T06:29:26.107Z,92.38
2024-03-04T06:31:43.133Z,91.09
2024-03-04T06:34:08.584Z,90.19
2024-03-04T06:36:33.170Z,90.67
2024-03-04T06:38:50.098Z,90.24
2024-03-04T06:41:06.972Z,90.43
2024-03-04T06:43:23.995Z,90.38
2024-03-04T06:45:40.841Z,91.44
2024-03-04T06:47:57.805Z,89.64
2024-03-04T06:50:14.803Z,89.98
2024-03-04T06:52:31.826Z,90.97
2024-03-04T06:54:48.739Z,90.86
2024-03-04T06:57:05.695Z,90.72
2024-03-04T06:59:22.556Z,90.37
2024-03-04T07:01:39.661Z,91.39
2024-03-04T07:03:56.604Z,91.55
2024-03-04T07:06:13.489Z,91.36
2024-03-04T07:08:33.487Z,90.94
2024-03-04T07:10:50.820Z,89.98
2024-03-04T07:13:08.030Z,90.24
2024-03-04T07:15:24.945Z,91.20
2024-03-04T07:17:41.860Z,91.95
2024-03-04T07:19:58.751Z,91.89
2024-03-04T07:22:15.734Z,90.60
2024-03-04T07:24:32.657Z,90.62
2024-03-04T07:26:49.554Z,90.26
2024-03-04T07:29:11.603Z,90.89
2024-03-04T07:31:31.526Z,89.74
2024-03-04T07:33:48.475Z,89.92
2024-03-04T07:36:05.403Z,90.00
2024-03-04T07:38:22.312Z,90.87
2024-03-04T07:40:39.234Z,91.99
2024-03-04T07:42:56.164Z,91.58
2024-03-04T07:45:13.052Z,90.92
2024-03-04T07:47:30.063Z,92.03
2024-03-04T07:49:47.081Z,90.78
2024-03-04T07:52:04.062Z,91.47
2024-03-04T07:54:21.082Z,91.97
2024-03-04T07:56:37.986Z,91.02
2024-03-04T07:58:54.943Z,91.19
2024-03-04T08:01:11.886Z,90.92
2024-03-04T08:03:28.789Z,90.00
2024-03-04T08:05:45.701Z,91.23
2024-03-04T08:08:02.618Z,89.54
2024-03-04T08:10:19.539Z,89.79
2024-03-04T08:12:36.514Z,89.53
2024-03-04T08:14:53.407Z,91.35
2024-03-04T08:17:10.318Z,89.67
2024-03-04T08:19:27.325Z,90.42
2024-03-04T08:21:44.268Z,89.86
2024-03-04T08:24:01.177Z,89.72
2024-03-04T08:26:18.037Z,88.49
2024-03-04T08:28:36.053Z,89.33
2024-03-04T08:30:53.265Z,89.37
2024-03-04T08:33:10.231Z,89.16
2024-03-04T08:35:27.203Z,89.08
2024-03-04T08:37:44.176Z,89.55
2024-03-04T08:40:01.102Z,88.08
2024-03-04T08:42:18.016Z,87.84
2024-03-04T08:44:34.922Z,88.81
2024-03-04T08:46:51.882Z,88.78
2024-03-04T08:49:08.856Z,89.53
2024-03-04T08:51:25.805Z,89.12
2024-03-04T08:53:42.776Z,88.65
2024-03-04T08:55:59.666Z,88.71
2024-03-04T08:58:16.565Z,88.25
2024-03-04T09:00:33.615Z,87.06
2024-03-04T09:02:50.598Z,87.41
2024-03-04T09:05:08.151Z,88.56
2024-03-04T09:07:25.140Z,88.01
2024-03-04T09:09:42.125Z,88.11
2024-03-04T09:11:59.102Z,87.71
2024-03-04T09:14:16.018Z,87.70
2024-03-04T09:16:32.944Z,87.69
2024-03-04T09:18:49.866Z,86.60
2024-03-04T09:21:06.724Z,86.23
2024-03-04T09:23:23.605Z,87.21
2024-03-04T09:25:42.775Z,86.88
2024-03-04T09:28:00.243Z,86.84
2024-03-04T09:30:17.413Z,86.81
2024-03-04T09:32:34.919Z,87.01
2024-03-04T09:34:51.800Z,85.98
2024-03-04T09:37:08.805Z,86.60
2024-03-04T09:39:25.687Z,86.38
2024-03-04T09:41:42.596Z,86.63
2024-03-04T09:43:59.470Z,86.50
2024-03-04T09:46:16.377Z,85.21
2024-03-04T09:48:33.355Z,86.47
2024-03-04T09:50:50.306Z,85.96
2024-03-04T09:53:07.205Z,85.79
2024-03-04T09:55:24.227Z,85.39
2024-03-04T09:57:41.210Z,84.78
2024-03-04T09:59:58.299Z,85.83
2024-03-04T10:02:15.267Z,85.79
2024-03-04T10:04:32.557Z,85.41
2024-03-04T10:06:49.767Z,84.46
2024-03-04T10:09:06.664Z,85.36
2024-03-04T10:11:23.585Z,85.13
2024-03-04T10:13:40.684Z,85.19
2024-03-04T10:15:57.565Z,84.40
2024-03-04T10:18:14.615Z,85.30
2024-03-04T10:20:31.687Z,84.39
2024-03-04T10:22:48.664Z,84.54
2024-03-04T10:25:05.727Z,83.43
2024-03-04T10:27:22.700Z,83.04
2024-03-04T10:29:39.559Z,83.18
2024-03-04T10:31:56.531Z,82.96
2024-03-04T10:34:13.511Z,83.17
2024-03-04T10:36:30.397Z,83.11
2024-03-04T10:38:47.259Z,83.28
2024-03-04T10:41:04.546Z,83.71
2024-03-04T10:43:21.490Z,83.29
2024-03-04T10:45:38.395Z,81.86
2024-03-04T10:47:55.289Z,82.30
2024-03-04T10:50:12.253Z,82.65
2024-03-04T10:52:29.204Z,82.41
2024-03-04T10:54:46.174Z,83.08
2024-03-04T10:57:03.054Z,82.25
2024-03-04T10:59:19.944Z,83.09
2024-03-04T11:01:36.874Z,82.81
2024-03-04T11:03:53.766Z,83.23
2024-03-04T11:06:10.711Z,82.87
2024-03-04T11:08:27.605Z,83.11
2024-03-04T11:10:44.528Z,82.58
2024-03-04T11:13:01.468Z,82.32
2024-03-04T11:15:18.471Z,82.76
2024-03-04T11:17:35.484Z,82.68
2024-03-04T11:19:52.451Z,82.19
2024-03-04T11:22:09.444Z,82.75
2024-03-04T11:24:26.416Z,81.75
2024-03-04T11:26:43.430Z,81.99
2024-03-04T11:29:00.347Z,81.92
2024-03-04T11:31:17.348Z,81.72
2024-03-04T11:33:34.489Z,82.25
2024-03-04T11:35:51.383Z,82.56
2024-03-04T11:38:08.695Z,81.58
2024-03-04T11:40:25.968Z,81.67
2024-03-04T11:42:43.145Z,81.34
2024-03-04T11:45:00.176Z,82.86
2024-03-04T11:47:17.085Z,82.52
2024-03-04T11:49:34.360Z,81.70
2024-03-04T11:51:51.355Z,82.42
2024-03-04T11:54:08.266Z,83.06
2024-03-04T11:56:25.152Z,83.05
2024-03-04T11:58:42.166Z,82.38
2024-03-04T12:01:04.776Z,82.20
2024-03-04T12:03:29.465Z,82.66
2024-03-04T12:05:46.329Z,82.90
2024-03-04T12:08:07.870Z,82.75
2024-03-04T12:10:29.345Z,81.87
2024-03-04T12:12:46.359Z,82.75
2024-03-04T12:15:03.239Z,82.96
2024-03-04T12:17:20.141Z,83.51
2024-03-04T12:19:37.104Z,82.63
2024-03-04T12:21:54.104Z,83.15
2024-03-04T12:24:10.977Z,83.13
2024-03-04T12:26:27.935Z,81.88
2024-03-04T12:28:44.909Z,82.47
2024-03-04T12:31:02.055Z,82.32
2024-03-04T12:33:18.964Z,83.22
2024-03-04T12:35:35.816Z,83.79
2024-03-04T12:37:52.704Z,82.63
2024-03-04T12:40:09.664Z,82.38
2024-03-04T12:42:26.525Z,83.76
2024-03-04T12:44:43.402Z,82.90
2024-03-04T12:47:00.355Z,83.11
2024-03-04T12:49:17.352Z,84.01
2024-03-04T12:51:34.313Z,84.43
2024-03-04T12:53:51.216Z,83.02
2024-03-04T12:56:08.062Z,82.95
2024-03-04T12:58:24.980Z,83.43
2024-03-04T13:00:41.904Z,83.61
2024-03-04T13:02:58.833Z,83.56
2024-03-04T13:05:15.726Z,83.48
2024-03-04T13:07:32.682Z,83.36
2024-03-04T13:09:49.627Z,83.35
2024-03-04T13:12:09.715Z,83.82
2024-03-04T13:14:27.525Z,83.56
2024-03-04T13:16:44.526Z,83.87
2024-03-04T13:19:01.481Z,82.56
2024-03-04T13:21:18.459Z,82.91
2024-03-04T13:23:35.421Z,84.20
2024-03-04T13:25:52.409Z,83.17
2024-03-04T13:28:09.340Z,83.40
2024-03-04T13:30:26.263Z,83.66
2024-03-04T13:32:43.329Z,83.35
2024-03-04T13:35:00.283Z,83.23
2024-03-04T13:37:17.249Z,83.43
2024-03-04T13:39:34.234Z,82.97
2024-03-04T13:41:51.148Z,82.76
2024-03-04T13:44:08.138Z,83.63
2024-03-04T13:46:25.106Z,82.60
2024-03-04T13:48:42.065Z,81.97
2024-03-04T13:50:58.991Z,82.63
2024-03-04T13:53:15.918Z,82.73
2024-03-04T13:55:33.012Z,83.41
2024-03-04T13:57:49.915Z,83.59
2024-03-04T14:00:06.797Z,82.69
2024-03-04T14:02:23.766Z,83.37
2024-03-04T14:04:40.806Z,82.38
2024-03-04T14:06:57.711Z,83.03
2024-03-04T14:09:14.544Z,82.60
2024-03-04T14:11:31.476Z,83.56
2024-03-04T14:13:48.494Z,82.82
2024-03-04T14:16:05.552Z,82.67
2024-03-04T14:18:22.545Z,82.62
2024-03-04T14:20:39.433Z,82.78
2024-03-04T14:22:56.311Z,81.69
2024-03-04T14:25:13.306Z,81.66
2024-03-04T14:27:30.224Z,81.65
2024-03-04T14:29:47.314Z,82.48
2024-03-04T14:32:04.268Z,83.02
2024-03-04T14:34:21.361Z,82.81
2024-03-04T14:36:38.323Z,81.75
2024-03-04T14:38:55.228Z,81.76
2024-03-04T14:41:12.198Z,81.74
2024-03-04T14:43:29.129Z,81.80
2024-03-04T14:45:45.998Z,81.49
2024-03-04T14:48:02.895Z,83.01
2024-03-04T14:50:19.869Z,81.74
2024-03-04T14:52:36.844Z,81.54
2024-03-04T14:54:53.780Z,82.19
2024-03-04T14:57:10.675Z,82.26
2024-03-04T14:59:28.014Z,83.22
2024-03-04T15:01:45.644Z,82.62
2024-03-04T15:04:02.562Z,83.17
2024-03-04T15:06:19.486Z,83.05
2024-03-04T15:08:36.450Z,81.80
2024-03-04T15:10:53.582Z,83.46
2024-03-04T15:13:11.039Z,82.83
2024-03-04T15:15:28.052Z,83.65
2024-03-04T15:17:45.015Z,82.19
2024-03-04T15:20:02.054Z,82.52
2024-03-04T15:22:19.072Z,82.00
2024-03-04T15:24:36.034Z,82.37
2024-03-04T15:26:52.944Z,83.61
2024-03-04T15:29:09.862Z,82.79
2024-03-04T15:31:26.789Z,83.76
2024-03-04T15:33:43.726Z,83.37
2024-03-04T15:36:06.900Z,83.96
2024-03-04T15:38:30.587Z,84.05
2024-03-04T15:40:47.525Z,83.29
2024-03-04T15:43:04.544Z,83.66
2024-03-04T15:45:21.604Z,83.16
2024-03-04T15:47:38.569Z,83.15
2024-03-04T15:49:55.468Z,82.94
2024-03-04T15:52:12.473Z,83.31
2024-03-04T15:54:29.443Z,84.59
2024-03-04T15:56:46.409Z,83.77
2024-03-04T15:59:03.385Z,84.56
2024-03-04T16:01:20.491Z,84.39
2024-03-04T16:03:37.415Z,83.56
2024-03-04T16:05:54.373Z,83.72
2024-03-04T16:08:11.245Z,84.21
2024-03-04T16:10:28.180Z,84.16
2024-03-04T16:12:45.164Z,83.93
2024-03-04T16:15:02.081Z,84.00
2024-03-04T16:17:18.960Z,84.18
2024-03-04T16:19:35.917Z,85.15
2024-03-04T16:21:52.842Z,85.23
2024-03-04T16:24:09.724Z,84.33
2024-03-04T16:26:26.682Z,84.47
2024-03-04T16:28:43.647Z,85.34
2024-03-04T16:31:00.477Z,85.46
2024-03-04T16:33:17.451Z,84.91
2024-03-04T16:35:34.351Z,84.43
2024-03-04T16:37:51.331Z,85.80
2024-03-04T16:40:08.229Z,85.78
2024-03-04T16:42:25.237Z,85.75
2024-03-04T16:44:42.080Z,85.81
2024-03-04T16:46:59.044Z,85.73
2024-03-04T16:49:15.948Z,84.60
2024-03-04T16:51:32.824Z,84.83
2024-03-04T16:53:49.695Z,85.56
2024-03-04T16:56:06.699Z,86.02
2024-03-04T16:58:23.597Z,85.47
2024-03-04T17:00:40.529Z,85.51
2024-03-04T17:02:57.402Z,85.44
2024-03-04T17:05:14.336Z,86.56
2024-03-04T17:07:31.283Z,87.28
2024-03-04T17:09:48.160Z,87.24
2024-03-04T17:12:05.038Z,86.70
2024-03-04T17:14:21.971Z,86.54
2024-03-04T17:16:38.959Z,87.47
2024-03-04T17:18:55.838Z,87.56
2024-03-04T17:21:12.832Z,87.29
2024-03-04T17:23:29.773Z,87.26
2024-03-04T17:25:46.829Z,87.92
2024-03-04T17:28:03.818Z,87.51
2024-03-04T17:30:20.704Z,86.64
2024-03-04T17:32:37.746Z,86.76
2024-03-04T17:34:54.692Z,87.83
2024-03-04T17:37:11.622Z,88.08
2024-03-04T17:39:28.599Z,87.55
2024-03-04T17:41:45.567Z,87.77
2024-03-04T17:44:02.483Z,88.66
2024-03-04T17:46:19.525Z,88.27
2024-03-04T17:48:36.528Z,87.19
2024-03-04T17:50:53.498Z,88.73
2024-03-04T17:53:10.375Z,88.21
2024-03-04T17:55:27.349Z,87.58
2024-03-04T17:57:44.509Z,87.97
2024-03-04T18:00:01.519Z,89.30
2024-03-04T18:02:21.352Z,87.99
2024-03-04T18:04:39.486Z,88.19
2024-03-04T18:06:56.400Z,88.97
2024-03-04T18:09:13.304Z,88.68
2024-03-04T18:11:30.215Z,88.55
2024-03-04T18:13:47.209Z,89.89
2024-03-04T18:16:04.110Z,89.22
2024-03-04T18:18:20.995Z,90.25
2024-03-04T18:20:37.942Z,89.66
2024-03-04T18:22:54.854Z,89.38
2024-03-04T18:25:11.766Z,90.03
2024-03-04T18:27:28.696Z,89.02
2024-03-04T18:29:45.684Z,89.21
2024-03-04T18:32:02.684Z,89.13
2024-03-04T18:34:19.581Z,89.32
2024-03-04T18:36:36.567Z,89.53
2024-03-04T18:38:53.543Z,89.38
2024-03-04T18:41:10.504Z,89.49
2024-03-04T18:43:27.396Z,90.53
2024-03-04T18:45:44.345Z,90.86
2024-03-04T18:48:01.319Z,90.52
2024-03-04T18:50:18.231Z,89.60
2024-03-04T18:52:35.136Z,90.60
2024-03-04T18:54:52.010Z,89.44
2024-03-04T18:57:08.886Z,90.16
2024-03-04T18:59:25.765Z,89.45
2024-03-04T19:01:42.816Z,90.24
2024-03-04T19:03:59.874Z,89.99
2024-03-04T19:06:16.783Z,90.26
2024-03-04T19:08:33.680Z,90.43
2024-03-04T19:10:58.110Z,90.65
2024-03-04T19:13:18.010Z,89.65
2024-03-04T19:15:34.882Z,90.80
2024-03-04T19:17:51.848Z,90.71
2024-03-04T19:20:08.791Z,89.47
2024-03-04T19:22:25.905Z,89.47
2024-03-04T19:24:43.143Z,90.49
2024-03-04T19:27:00.032Z,91.13
2024-03-04T19:29:16.949Z,90.54
2024-03-04T19:31:34.078Z,89.95
2024-03-04T19:33:51.040Z,89.83
2024-03-04T19:36:07.911Z,90.01
2024-03-04T19:38:25.162Z,90.64
2024-03-04T19:40:42.052Z,91.22
2024-03-04T19:42:58.974Z,89.86
2024-03-04T19:45:15.847Z,90.69
2024-03-04T19:47:32.752Z,90.37
2024-03-04T19:49:49.715Z,89.70
2024-03-04T19:52:06.624Z,90.68
2024-03-04T19:54:23.524Z,90.44
2024-03-04T19:56:40.501Z,91.24
2024-03-04T19:58:57.432Z,90.30
2024-03-04T20:01:14.439Z,90.78
2024-03-04T20:03:31.367Z,90.20
2024-03-04T20:05:48.308Z,90.35
2024-03-04T20:08:05.390Z,90.63
2024-03-04T20:10:22.409Z,90.22
2024-03-04T20:12:39.373Z,90.27
2024-03-04T20:14:56.296Z,90.29
2024-03-04T20:17:13.183Z,90.87
2024-03-04T20:19:30.129Z,90.54
2024-03-04T20:21:47.175Z,91.77
2024-03-04T20:24:04.031Z,91.96
2024-03-04T20:26:20.949Z,92.04
2024-03-04T20:28:38.042Z,90.48
2024-03-04T20:30:55.036Z,91.31
2024-03-04T20:33:12.017Z,91.72
2024-03-04T20:35:29.061Z,91.74
2024-03-04T20:37:46.021Z,91.15
2024-03-04T20:40:02.862Z,90.93
2024-03-04T20:42:19.753Z,90.94
2024-03-04T20:44:36.644Z,90.57
2024-03-04T20:46:53.566Z,90.94
2024-03-04T20:49:11.394Z,90.86
2024-03-04T20:51:29.156Z,92.41
2024-03-04T20:53:46.020Z,92.35
2024-03-04T20:56:03.109Z,92.05
2024-03-04T20:58:20.159Z,91.75
2024-03-04T21:00:37.034Z,92.46
2024-03-04T21:02:53.939Z,91.25
2024-03-04T21:05:10.793Z,91.70
2024-03-04T21:07:27.819Z,92.33
2024-03-04T21:09:44.694Z,91.19
2024-03-04T21:12:01.880Z,92.27
2024-03-04T21:14:18.921Z,92.55
2024-03-04T21:16:35.979Z,91.89
2024-03-04T21:18:53.107Z,92.28
2024-03-04T21:21:09.998Z,92.24
2024-03-04T21:23:26.950Z,92.79
2024-03-04T21:25:44.006Z,92.94
2024-03-04T21:28:00.999Z,92.08
2024-03-04T21:30:17.905Z,92.30
2024-03-04T21:32:34.843Z,93.28
2024-03-04T21:34:51.759Z,93.22
2024-03-04T21:37:16.933Z,93.19
2024-03-04T21:39:38.048Z,92.76
2024-03-04T21:41:54.918Z,93.18
2024-03-04T21:44:11.866Z,92.87
2024-03-04T21:46:28.982Z,93.91
2024-03-04T21:48:45.941Z,93.86
2024-03-04T21:51:02.860Z,92.82
2024-03-04T21:53:19.744Z,94.24
2024-03-04T21:55:36.700Z,94.18
2024-03-04T21:57:53.618Z,93.62
2024-03-04T22:00:10.513Z,93.88
2024-03-04T22:02:27.416Z,93.97
2024-03-04T22:04:44.537Z,93.51
2024-03-04T22:07:01.468Z,93.20
2024-03-04T22:09:18.322Z,93.51
2024-03-04T22:11:45.744Z,93.85
2024-03-04T22:14:03.854Z,94.74
2024-03-04T22:16:20.849Z,94.62
2024-03-04T22:18:37.717Z,95.35
2024-03-04T22:20:54.657Z,94.58
2024-03-04T22:23:11.507Z,95.52
2024-03-04T22:25:28.545Z,94.40
2024-03-04T22:27:45.480Z,94.89
2024-03-04T22:30:02.425Z,95.75
2024-03-04T22:32:19.308Z,95.65
2024-03-04T22:34:36.227Z,95.58
2024-03-04T22:36:53.112Z,94.81
2024-03-04T22:39:10.009Z,96.00
2024-03-04T22:41:26.862Z,95.94
2024-03-04T22:43:43.875Z,94.87
2024-03-04T22:46:00.923Z,94.74
2024-03-04T22:48:17.806Z,95.02
2024-03-04T22:50:34.696Z,94.60
2024-03-04T22:52:51.702Z,95.55
2024-03-04T22:55:08.665Z,96.38
2024-03-04T22:57:25.547Z,95.56
2024-03-04T22:59:42.396Z,95.79
2024-03-04T23:01:59.454Z,96.54
2024-03-04T23:04:16.343Z,96.00
2024-03-04T23:06:33.245Z,96.00
2024-03-04T23:08:50.156Z,96.06
2024-03-04T23:11:07.132Z,96.47
2024-03-04T23:13:24.256Z,96.19
2024-03-04T23:15:41.194Z,96.46
2024-03-04T23:17:58.100Z,96.51
2024-03-04T23:20:15.046Z,96.01
2024-03-04T23:22:31.991Z,95.46
2024-03-04T23:24:48.931Z,96.48
2024-03-04T23:27:05.785Z,96.98
2024-03-04T23:29:22.682Z,96.10
2024-03-04T23:31:39.678Z,96.56
2024-03-04T23:33:56.574Z,97.15
2024-03-04T23:36:13.458Z,97.04
2024-03-04T23:38:30.365Z,97.79
2024-03-04T23:40:47.359Z,97.67
2024-03-04T23:43:04.246Z,97.79
2024-03-04T23:45:21.104Z,97.25
2024-03-04T23:47:38.005Z,97.67
2024-03-04T23:49:54.982Z,98.36
2024-03-04T23:52:11.996Z,98.07
2024-03-04T23:54:28.962Z,97.88
2024-03-04T23:56:45.876Z,97.31
2024-03-04T23:59:02.877Z,97.56
